Latest Coastal Weather Observations for Minlaton Airport

IDS60701

Issued at 3:01 pm CDT Monday 6 December 2021 (issued every 10 minutes, with the page automatically refreshed every 10 minutes)

About coastal observations | Map of coastal stations | Coastal observations for SA | Marine services | Other Formats
Station Details ID: 022031 Name: MINLATON AERO Lat: -34.75 Lon: 137.53 Height: 32.0 m
Data from the previous 72 hours. | See also: Recent months at Minlaton Airport
Date/Time
CDT
Wind Sea
Height
m
Swell Vis
km
Cloud Weather Temp
°C
Press
MSL
hPa
Rain since
9am
mm
Dir  Spd
kts
Gust
kts
Height
m
Period
s
Dir
06/03:00pm W 20 24 - - - - - - - 23.3 1012.0 0.0
06/02:30pm W 21 24 - - - - - - - 22.8 1012.0 0.0
06/02:00pm W 19 24 - - - - - - - 23.8 1011.9 0.0
06/01:30pm W 18 24 - - - - - - - 23.8 1012.1 0.0
06/01:00pm W 20 25 - - - - - - - 22.8 1012.5 0.0
06/12:38pm W 15 26 - - - - - - - 21.9 1012.6 0.0
06/12:30pm W 10 13 - - - - - - - 23.0 1012.3 0.0
06/12:00pm W 12 17 - - - - - - - 22.3 1012.7 0.0
06/11:30am WSW 18 22 - - - - - - - 21.5 1012.9 0.0
06/11:00am WSW 11 15 - - - - - - - 23.0 1012.8 0.0
06/10:30am WSW 11 16 - - - - - - - 22.8 1012.7 0.0
06/10:00am SW 7 10 - - - - - - - 23.6 1012.8 0.0
06/09:30am SE 5 8 - - - - - - - 22.5 1012.8 0.0
06/09:00am SSE 8 12 - - - - - - - 20.8 1012.8 0.0
06/08:30am SE 10 12 - - - - - - - 18.6 1012.8 0.0
06/08:00am SSE 11 13 - - - - - - - 16.9 1012.8 0.0
06/07:30am SSE 11 14 - - - - - - - 15.7 1012.7 0.0
06/07:00am S 7 8 - - - - - - - 14.2 1012.6 0.0
06/06:30am SE 9 11 - - - - - - - 13.3 1012.3 0.0
06/06:00am SE 9 11 - - - - - - - 12.7 1012.2 0.0
06/05:30am SSE 9 11 - - - - - - - 12.7 1012.3 0.0
06/05:00am SSE 9 11 - - - - - - - 12.6 1012.3 0.0
06/04:30am SSE 9 11 - - - - - - - 12.8 1012.4 0.0
06/04:00am S 10 12 - - - - - - - 12.6 1012.4 0.0
06/03:30am S 9 10 - - - - - - - 11.2 1012.7 0.0
06/03:00am SSE 8 9 - - - - - - - 12.0 1012.8 0.0
06/02:30am SSE 7 8 - - - - - - - 10.8 1013.1 0.0
06/02:00am S 9 11 - - - - - - - 11.0 1013.3 0.0
06/01:30am SSW 7 8 - - - - - - - 11.6 1013.3 0.0
06/01:00am SSE 9 10 - - - - - - - 13.3 1013.5 0.0
06/12:30am SE 9 11 - - - - - - - 13.8 1013.8 0.0
06/12:00am SSE 8 9 - - - - - - - 13.2 1014.3 0.0
 
Date/Time
CDT
Wind Sea
Height
m
Swell Vis
km
Cloud Weather Temp
°C
Press
MSL
hPa
Rain since
9am
mm
Dir  Spd
kts
Gust
kts
Height
m
Period
s
Dir
05/11:30pm S 8 9 - - - - - - - 13.5 1014.6 0.0
05/11:00pm SE 10 14 - - - - - - - 14.6 1014.6 0.0
05/10:30pm SSE 9 11 - - - - - - - 14.2 1014.6 0.0
05/10:00pm SSE 9 11 - - - - - - - 14.6 1014.9 0.0
05/09:30pm SSE 11 14 - - - - - - - 15.6 1014.8 0.0
05/09:00pm SE 13 16 - - - - - - - 16.2 1014.7 0.0
05/08:30pm SE 14 19 - - - - - - - 16.9 1014.9 0.0
05/08:00pm SE 15 19 - - - - - - - 18.1 1014.8 0.0
05/07:30pm SE 15 19 - - - - - - - 19.5 1014.7 0.0
05/07:00pm SSE 15 18 - - - - - - - 21.0 1014.7 0.0
05/06:30pm SSE 14 18 - - - - - - - 21.8 1014.7 0.0
05/06:00pm S 13 19 - - - - - - - 23.3 1014.7 0.0
05/05:30pm SSE 11 16 - - - - - - - 24.2 1014.8 0.0
05/05:00pm S 11 16 - - - - - - - 24.1 1014.9 0.0
05/04:30pm SE 14 19 - - - - - - - 24.3 1015.0 0.0
05/04:00pm SSE 19 25 - - - - - - - 25.5 1015.3 0.0
05/03:30pm SW 16 22 - - - - - - - 25.4 1015.1 0.0
05/03:00pm SW 17 22 - - - - - - - 25.6 1015.8 0.0
05/02:30pm WSW 13 18 - - - - - - - 24.2 1016.5 0.0
05/02:00pm W 12 16 - - - - - - - 24.4 1017.0 0.0
05/01:30pm E 9 13 - - - - - - - 24.3 1017.6 0.0
05/01:00pm ESE 10 16 - - - - - - - 23.6 1018.1 0.0
05/12:30pm ENE 8 13 - - - - - - - 22.7 1018.4 0.0
05/12:00pm NNE 7 14 - - - - - - - 21.6 1018.5 0.0
05/11:30am NE 9 14 - - - - - - - 22.2 1018.5 0.0
05/11:00am ENE 9 14 - - - - - - - 20.8 1018.8 0.0
05/10:30am ENE 9 14 - - - - - - - 20.8 1019.1 0.0
05/10:00am ESE 10 14 - - - - - - - 19.4 1019.9 0.0
05/09:30am ESE 10 14 - - - - - - - 17.9 1020.3 0.0
05/09:00am ESE 12 16 - - - - - - - 18.1 1020.4 0.0
05/08:30am ESE 16 19 - - - - - - - 17.6 1020.8 0.0
05/08:00am ESE 15 19 - - - - - - - 16.9 1020.6 0.0
05/07:30am ESE 14 18 - - - - - - - 15.9 1020.5 0.0
05/07:00am SE 7 8 - - - - - - - 14.4 1020.4 0.0
05/06:30am SE 9 10 - - - - - - - 11.8 1020.2 0.0
05/06:00am SE 8 9 - - - - - - - 11.2 1020.1 0.0
05/05:30am SE 9 10 - - - - - - - 11.5 1019.7 0.0
05/05:00am SE 8 9 - - - - - - - 11.9 1019.7 0.0
05/04:30am S 5 7 - - - - - - - 11.3 1019.6 0.0
05/04:00am SSE 5 6 - - - - - - - 12.0 1019.5 0.0
05/03:30am SE 9 10 - - - - - - - 12.2 1019.4 0.0
05/03:00am SE 11 13 - - - - - - - 12.5 1019.4 0.0
05/02:30am SE 11 12 - - - - - - - 11.9 1019.8 0.0
05/02:00am SSE 10 11 - - - - - - - 11.2 1020.2 0.0
05/01:30am SE 9 10 - - - - - - - 11.8 1020.6 0.0
05/01:00am SE 8 10 - - - - - - - 11.9 1021.1 0.0
05/12:30am SE 10 12 - - - - - - - 12.5 1021.3 0.0
05/12:00am SE 9 12 - - - - - - - 12.6 1021.4 0.0
 
Date/Time
CDT
Wind Sea
Height
m
Swell Vis
km
Cloud Weather Temp
°C
Press
MSL
hPa
Rain since
9am
mm
Dir  Spd
kts
Gust
kts
Height
m
Period
s
Dir
04/11:30pm SE 12 15 - - - - - - - 13.3 1021.3 0.0
04/11:00pm SE 12 15 - - - - - - - 13.5 1021.9 0.0
04/10:30pm SE 12 14 - - - - - - - 13.8 1022.1 0.0
04/10:00pm SE 12 15 - - - - - - - 14.1 1021.9 0.0
04/09:30pm SE 13 16 - - - - - - - 14.5 1021.7 0.0
04/09:00pm SE 12 14 - - - - - - - 14.7 1021.6 0.0
04/08:30pm SSE 14 17 - - - - - - - 15.6 1021.5 0.0
04/08:00pm SSE 12 16 - - - - - - - 16.8 1021.5 0.0
04/07:30pm SSE 15 19 - - - - - - - 18.0 1021.2 0.0
04/07:00pm SE 15 19 - - - - - - - 18.8 1021.2 0.0
04/06:30pm SSE 12 18 - - - - - - - 20.1 1021.1 0.0
04/06:00pm S 11 14 - - - - - - - 20.5 1021.0 0.0
04/05:30pm SSE 11 17 - - - - - - - 21.0 1021.2 0.0
04/05:00pm SSE 11 17 - - - - - - - 22.0 1021.1 0.0
04/04:30pm SSE 12 18 - - - - - - - 22.6 1021.1 0.0
04/04:00pm SSE 14 21 - - - - - - - 22.3 1021.4 0.0
04/03:30pm S 12 19 - - - - - - - 23.2 1021.7 0.0
04/03:00pm S 11 18 - - - - - - - 22.9 1021.9 0.0
04/02:30pm SE 12 19 - - - - - - - 22.6 1022.2 0.0
04/02:00pm SSE 13 18 - - - - - - - 22.0 1022.4 0.0
04/01:30pm SSE 13 20 - - - - - - - 23.2 1022.4 0.0
04/01:00pm SSE 12 21 - - - - - - - 21.5 1022.8 0.0
04/12:30pm SE 10 15 - - - - - - - 22.3 1023.5 0.0
04/12:00pm S 11 18 - - - - - - - 21.6 1023.5 0.0
04/11:30am S 11 20 - - - - - - - 20.7 1023.6 0.0
04/11:00am S 12 16 - - - - - - - 20.4 1023.3 0.0
04/10:30am SSE 13 17 - - - - - - - 19.8 1023.3 0.0
04/10:00am SSE 10 17 - - - - - - - 19.5 1023.4 0.0
04/09:30am S 11 16 - - - - - - - 18.5 1023.5 0.0
04/09:00am SSE 11 17 - - - - - - - 17.8 1023.5 0.0
04/08:30am SSE 12 17 - - - - - - - 17.0 1023.7 0.0
04/08:00am S 10 13 - - - - - - - 15.9 1023.6 0.0
04/07:30am SSE 8 11 - - - - - - - 14.2 1023.2 0.0
04/07:00am SSE 6 8 - - - - - - - 11.1 1023.0 0.0
04/06:30am SSE 10 11 - - - - - - - 9.4 1022.5 0.0
04/06:00am SSE 6 7 - - - - - - - 7.8 1022.4 0.0
04/05:30am SSE 6 7 - - - - - - - 7.6 1022.2 0.0
04/05:00am SSE 7 8 - - - - - - - 7.9 1021.8 0.0
04/04:30am SSE 8 9 - - - - - - - 8.6 1021.5 0.0
04/04:00am SSE 7 8 - - - - - - - 8.6 1021.5 0.0
04/03:30am SSE 9 11 - - - - - - - 9.3 1021.3 0.0
04/03:00am SSE 9 10 - - - - - - - 9.5 1021.2 0.0
04/02:30am SE 9 11 - - - - - - - 10.0 1021.0 0.0
04/02:00am SE 10 12 - - - - - - - 10.4 1021.2 0.0
04/01:30am SSE 9 11 - - - - - - - 9.9 1021.6 0.0
04/01:00am SSE 9 10 - - - - - - - 9.5 1021.9 0.0
04/12:30am SSE 9 9 - - - - - - - 10.1 1022.2 0.0
04/12:00am SSE 9 11 - - - - - - - 11.2 1022.1 0.0
 
Date/Time
CDT
Wind Sea
Height
m
Swell Vis
km
Cloud Weather Temp
°C
Press
MSL
hPa
Rain since
9am
mm
Dir  Spd
kts
Gust
kts
Height
m
Period
s
Dir
03/11:30pm SSE 9 11 - - - - - - - 12.0 1022.0 0.0
03/11:00pm SSE 11 15 - - - - - - - 12.7 1021.7 0.0
03/10:30pm SSE 11 13 - - - - - - - 12.8 1021.7 0.0
03/10:00pm SSE 9 11 - - - - - - - 13.1 1021.6 0.0
03/09:30pm SSE 9 12 - - - - - - - 13.8 1021.4 0.0
03/09:00pm SSE 11 14 - - - - - - - 14.7 1021.2 0.0
03/08:30pm SSE 12 16 - - - - - - - 15.6 1021.0 0.0
03/08:00pm SE 14 19 - - - - - - - 17.0 1020.7 0.0
03/07:30pm SSE 13 16 - - - - - - - 17.8 1020.6 0.0
03/07:00pm S 13 17 - - - - - - - 18.6 1020.4 0.0
03/06:30pm S 13 19 - - - - - - - 20.7 1020.4 0.0
03/06:00pm S 12 18 - - - - - - - 22.2 1019.5 0.0
03/05:30pm S 13 19 - - - - - - - 21.6 1020.4 0.0
03/05:00pm S 14 17 - - - - - - - 21.2 1020.1 0.0
03/04:30pm S 12 17 - - - - - - - 23.4 1019.5 0.0
03/04:00pm WSW 10 13 - - - - - - - 23.2 1019.5 0.0
03/03:30pm WSW 11 13 - - - - - - - 21.8 1019.4 0.0

Other formats

Comma delimited format used in spreadsheet applications
http://www.bom.gov.au/fwo/IDS60701/IDS60701.95659.axf

JavaScript Object Notation format (JSON) in row-major order
http://www.bom.gov.au/fwo/IDS60701/IDS60701.95659.json

Data quality

Most of these data are generated automatically and are frequently updated. Quality checks on data are not normally performed. It is possible for incorrect values to appear. Refer to information at About Latest Weather Observations and please check the disclaimer before using these data.